sensor_id;sensor_type;location;lat;lon;timestamp;temperature;humidity
49821;DHT22;36893;52.520;13.450;2024-02-21T00:02:11;21.60;81.00
49821;DHT22;36893;52.520;13.450;2024-02-21T00:12:11;21.60;81.00
49821;DHT22;36893;52.520;13.450;2024-02-21T00:22:14;21.60;81.00
49821;DHT22;36893;52.520;13.450;2024-02-21T00:32:14;21.60;81.00
49821;DHT22;36893;52.520;13.450;2024-02-21T00:42:15;21.60;81.00
49821;DHT22;36893;52.520;13.450;2024-02-21T00:52:16;21.60;81.10
49821;DHT22;36893;52.520;13.450;2024-02-21T01:02:16;21.60;81.00
49821;DHT22;36893;52.520;13.450;2024-02-21T01:12:17;21.60;81.00
49821;DHT22;36893;52.520;13.450;2024-02-21T01:22:17;21.60;81.00
49821;DHT22;36893;52.520;13.450;2024-02-21T01:32:18;21.60;81.10
49821;DHT22;36893;52.520;13.450;2024-02-21T01:42:19;21.60;81.00
49821;DHT22;36893;52.520;13.450;2024-02-21T01:52:19;21.60;81.00
49821;DHT22;36893;52.520;13.450;2024-02-21T02:02:21;21.60;81.10
49821;DHT22;36893;52.520;13.450;2024-02-21T02:12:21;21.60;81.80
49821;DHT22;36893;52.520;13.450;2024-02-21T02:22:24;21.60;81.00
49821;DHT22;36893;52.520;13.450;2024-02-21T02:32:29;21.60;81.10
49821;DHT22;36893;52.520;13.450;2024-02-21T02:42:29;21.50;81.00
49821;DHT22;36893;52.520;13.450;2024-02-21T02:52:30;21.50;81.00
49821;DHT22;36893;52.520;13.450;2024-02-21T03:02:30;21.50;81.00
49821;DHT22;36893;52.520;13.450;2024-02-21T03:12:31;21.60;81.00
49821;DHT22;36893;52.520;13.450;2024-02-21T03:22:32;21.50;81.00
49821;DHT22;36893;52.520;13.450;2024-02-21T03:32:33;21.50;80.90
49821;DHT22;36893;52.520;13.450;2024-02-21T03:42:34;21.60;81.00
49821;DHT22;36893;52.520;13.450;2024-02-21T03:52:35;21.60;81.00
49821;DHT22;36893;52.520;13.450;2024-02-21T04:02:35;21.60;81.10
49821;DHT22;36893;52.520;13.450;2024-02-21T04:12:36;21.60;81.00
49821;DHT22;36893;52.520;13.450;2024-02-21T04:22:38;21.60;81.00
49821;DHT22;36893;52.520;13.450;2024-02-21T04:32:39;21.60;81.80
49821;DHT22;36893;52.520;13.450;2024-02-21T04:42:40;21.60;81.00
49821;DHT22;36893;52.520;13.450;2024-02-21T04:52:41;21.60;81.00
49821;DHT22;36893;52.520;13.450;2024-02-21T05:02:42;21.50;80.90
49821;DHT22;36893;52.520;13.450;2024-02-21T05:12:42;21.50;80.90
49821;DHT22;36893;52.520;13.450;2024-02-21T05:22:43;21.50;80.90
49821;DHT22;36893;52.520;13.450;2024-02-21T05:32:44;21.50;80.90
49821;DHT22;36893;52.520;13.450;2024-02-21T05:42:44;21.50;80.90
49821;DHT22;36893;52.520;13.450;2024-02-21T05:52:45;21.50;81.00
49821;DHT22;36893;52.520;13.450;2024-02-21T06:02:46;21.50;80.90
49821;DHT22;36893;52.520;13.450;2024-02-21T06:12:46;21.60;81.00
49821;DHT22;36893;52.520;13.450;2024-02-21T06:22:47;21.50;81.00
49821;DHT22;36893;52.520;13.450;2024-02-21T06:32:47;21.60;81.80
49821;DHT22;36893;52.520;13.450;2024-02-21T06:42:48;21.60;81.00
49821;DHT22;36893;52.520;13.450;2024-02-21T06:52:49;21.60;80.90
49821;DHT22;36893;52.520;13.450;2024-02-21T07:02:50;21.60;80.90
49821;DHT22;36893;52.520;13.450;2024-02-21T07:12:51;21.60;80.70
49821;DHT22;36893;52.520;13.450;2024-02-21T07:22:53;21.60;80.70
49821;DHT22;36893;52.520;13.450;2024-02-21T07:32:54;21.60;80.70
49821;DHT22;36893;52.520;13.450;2024-02-21T07:42:55;21.60;80.70
49821;DHT22;36893;52.520;13.450;2024-02-21T07:52:56;21.60;80.70
49821;DHT22;36893;52.520;13.450;2024-02-21T08:02:56;21.60;80.90
49821;DHT22;36893;52.520;13.450;2024-02-21T08:12:57;21.40;81.80
49821;DHT22;36893;52.520;13.450;2024-02-21T08:22:57;21.20;83.40
49821;DHT22;36893;52.520;13.450;2024-02-21T08:32:58;21.10;84.60
49821;DHT22;36893;52.520;13.450;2024-02-21T08:42:59;21.20;85.40
49821;DHT22;36893;52.520;13.450;2024-02-21T08:52:59;21.20;85.90
49821;DHT22;36893;52.520;13.450;2024-02-21T09:03:00;21.20;86.80
49821;DHT22;36893;52.520;13.450;2024-02-21T09:13:01;21.30;86.70
49821;DHT22;36893;52.520;13.450;2024-02-21T09:23:03;21.30;86.90
49821;DHT22;36893;52.520;13.450;2024-02-21T09:33:04;21.60;86.70
49821;DHT22;36893;52.520;13.450;2024-02-21T09:43:05;21.90;85.40
49821;DHT22;36893;52.520;13.450;2024-02-21T09:53:07;21.90;84.30
49821;DHT22;36893;52.520;13.450;2024-02-21T10:03:08;21.50;84.40
49821;DHT22;36893;52.520;13.450;2024-02-21T10:13:10;21.50;85.20
49821;DHT22;36893;52.520;13.450;2024-02-21T10:23:24;21.60;84.70
49821;DHT22;36893;52.520;13.450;2024-02-21T10:33:24;21.60;84.10
49821;DHT22;36893;52.520;13.450;2024-02-21T10:43:29;21.60;83.90
49821;DHT22;36893;52.520;13.450;2024-02-21T10:54:02;21.50;83.60
49821;DHT22;36893;52.520;13.450;2024-02-21T11:04:13;21.50;83.60
49821;DHT22;36893;52.520;13.450;2024-02-21T11:14:20;21.20;84.20
49821;DHT22;36893;52.520;13.450;2024-02-21T11:24:32;21.00;85.90
49821;DHT22;36893;52.520;13.450;2024-02-21T11:34:33;21.00;86.90
49821;DHT22;36893;52.520;13.450;2024-02-21T11:44:35;21.10;87.30
49821;DHT22;36893;52.520;13.450;2024-02-21T11:54:38;21.10;87.20
49821;DHT22;36893;52.520;13.450;2024-02-21T12:04:39;21.10;87.20
49821;DHT22;36893;52.520;13.450;2024-02-21T12:14:39;21.20;87.30
49821;DHT22;36893;52.520;13.450;2024-02-21T12:24:40;21.20;87.30
49821;DHT22;36893;52.520;13.450;2024-02-21T12:34:47;21.20;87.50
49821;DHT22;36893;52.520;13.450;2024-02-21T12:44:47;21.20;87.50
49821;DHT22;36893;52.520;13.450;2024-02-21T12:54:48;21.10;87.30
49821;DHT22;36893;52.520;13.450;2024-02-21T13:04:50;21.40;86.50
49821;DHT22;36893;52.520;13.450;2024-02-21T13:14:51;21.50;83.90
49821;DHT22;36893;52.520;13.450;2024-02-21T13:24:52;21.20;83.00
49821;DHT22;36893;52.520;13.450;2024-02-21T13:34:52;20.80;83.80
49821;DHT22;36893;52.520;13.450;2024-02-21T13:44:53;20.60;84.40
49821;DHT22;36893;52.520;13.450;2024-02-21T13:54:54;20.50;84.80
49821;DHT22;36893;52.520;13.450;2024-02-21T14:04:54;20.50;84.80
49821;DHT22;36893;52.520;13.450;2024-02-21T14:14:55;20.40;84.60
49821;DHT22;36893;52.520;13.450;2024-02-21T14:24:58;20.60;84.00
49821;DHT22;36893;52.520;13.450;2024-02-21T14:34:59;20.80;82.10
49821;DHT22;36893;52.520;13.450;2024-02-21T14:45:00;20.80;80.20
49821;DHT22;36893;52.520;13.450;2024-02-21T14:55:26;20.70;79.00
49821;DHT22;36893;52.520;13.450;2024-02-21T15:05:52;20.60;78.30
49821;DHT22;36893;52.520;13.450;2024-02-21T15:16:18;20.50;77.70
49821;DHT22;36893;52.520;13.450;2024-02-21T15:26:44;20.70;77.30
49821;DHT22;36893;52.520;13.450;2024-02-21T15:37:10;20.80;77.20
49821;DHT22;36893;52.520;13.450;2024-02-21T15:47:36;20.80;77.30
49821;DHT22;36893;52.520;13.450;2024-02-21T15:57:40;20.80;77.30
49821;DHT22;36893;52.520;13.450;2024-02-21T16:07:41;20.90;77.30
49821;DHT22;36893;52.520;13.450;2024-02-21T16:17:41;21.00;77.40
49821;DHT22;36893;52.520;13.450;2024-02-21T16:28:07;21.00;77.40
49821;DHT22;36893;52.520;13.450;2024-02-21T16:38:35;21.10;77.50
49821;DHT22;36893;52.520;13.450;2024-02-21T16:49:01;21.10;77.40
49821;DHT22;36893;52.520;13.450;2024-02-21T16:59:27;21.10;78.30
49821;DHT22;36893;52.520;13.450;2024-02-21T17:09:53;21.10;77.50
49821;DHT22;36893;52.520;13.450;2024-02-21T17:20:19;21.20;77.60
49821;DHT22;36893;52.520;13.450;2024-02-21T17:30:45;21.20;77.60
49821;DHT22;36893;52.520;13.450;2024-02-21T17:41:11;21.20;77.50
49821;DHT22;36893;52.520;13.450;2024-02-21T17:51:37;21.20;77.50
49821;DHT22;36893;52.520;13.450;2024-02-21T18:02:03;21.20;77.50
49821;DHT22;36893;52.520;13.450;2024-02-21T18:12:29;21.20;77.50
